Ikuta — JD2239 — position and weather

sailwx.info

Track history (hours):
 
Tides and Currents Weather Stations Pressure Air Temp Water Temp Dewpoint Dewpoint Depression Visibility Wind Speed Wind Dir Waves Ship Positions

Ikuta

Last reported at 2018-Jun-25 05:53 UTC. Time now 2018-Jun-25 19:46 UTC.
Position N 34°52' E 139°48'.

Length 96 m; draft 3.6 m.

Type: Cargo ship. MMSI: 431501857.

Date/timePositionNaut miles runAvg speedWind from/ knotsBaromVisibWave heightAir tempDewpointWater temp
2018-Jun-25 05:53N 34°52' E 139°48'612.8
2018-Jun-25 05:25N 34°57' E 139°44'410.5
2018-Jun-25 05:00N 35°01' E 139°43'510.9
2018-Jun-25 04:30N 35°06' E 139°45'511.0
2018-Jun-25 04:00N 35°12' E 139°46'5 9.8
2018-Jun-25 03:30N 35°17' E 139°46'510.2
2018-Jun-25 03:00N 35°21' E 139°43'510.1
2018-Jun-25 02:29N 35°26' E 139°45'511.1
2018-Jun-25 02:00N 35°30' E 139°49'7 2.5
2018-Jun-24 23:16N 35°36' E 139°46'1 4.8
2018-Jun-24 23:00N 35°35' E 139°47'510.3
2018-Jun-24 22:30N 35°32' E 139°52'5 9.5
2018-Jun-24 22:00N 35°29' E 139°48'5 9.1
2018-Jun-24 21:30N 35°26' E 139°44'4 8.3
2018-Jun-24 21:00N 35°28' E 139°39'0 0.5
2018-Jun-24 20:28N 35°29' E 139°39'0 0.0
2018-Jun-24 19:58N 35°29' E 139°39'0 0.0
2018-Jun-24 19:28N 35°29' E 139°39'0 0.0
2018-Jun-24 18:58N 35°29' E 139°39'0 0.0
2018-Jun-24 18:28N 35°29' E 139°39'0 0.0
2018-Jun-24 17:58N 35°29' E 139°39'0 0.0
2018-Jun-24 17:28N 35°29' E 139°39'0 0.0
2018-Jun-24 16:58N 35°29' E 139°39'0 0.0
2018-Jun-24 16:28N 35°29' E 139°39'0 0.0
2018-Jun-24 15:58N 35°29' E 139°39'0 0.0
2018-Jun-24 15:28N 35°29' E 139°39'0 0.0
2018-Jun-24 14:58N 35°29' E 139°39'0 0.0
2018-Jun-24 14:28N 35°29' E 139°39'0 0.0
2018-Jun-24 13:58N 35°29' E 139°39'0 0.0
2018-Jun-24 13:28N 35°29' E 139°39'0 0.0
2018-Jun-24 12:58N 35°29' E 139°39'0 0.0
2018-Jun-24 12:28N 35°29' E 139°39'0 0.0
2018-Jun-24 11:58N 35°29' E 139°39'0 0.0
2018-Jun-24 11:28N 35°29' E 139°39'0 0.0
2018-Jun-24 10:58N 35°29' E 139°39'0 0.0
2018-Jun-24 10:28N 35°29' E 139°39'0 0.0
2018-Jun-24 09:58N 35°29' E 139°39'0 0.0
2018-Jun-24 09:28N 35°29' E 139°39'0 0.0
2018-Jun-24 08:58N 35°29' E 139°39'0 0.0
2018-Jun-24 08:28N 35°29' E 139°39'0 0.0
2018-Jun-24 07:58N 35°29' E 139°39'0 0.0
2018-Jun-24 07:28N 35°29' E 139°39'0 0.0
2018-Jun-24 06:58N 35°29' E 139°39'0 0.0
2018-Jun-24 06:28N 35°29' E 139°39'0 0.0
2018-Jun-24 05:58N 35°29' E 139°39'0 0.0
2018-Jun-24 05:28N 35°29' E 139°39'0 0.0
2018-Jun-24 04:58N 35°29' E 139°39'0 0.0
2018-Jun-24 04:28N 35°29' E 139°39'0 0.0
2018-Jun-24 03:55N 35°29' E 139°39'0 0.0
2018-Jun-24 03:28N 35°29' E 139°39'0 0.0
2018-Jun-24 02:55N 35°29' E 139°39'0 0.0
2018-Jun-24 02:28N 35°29' E 139°39'3 5.5
2018-Jun-24 01:58N 35°26' E 139°41'0 0.0
2018-Jun-24 01:28N 35°26' E 139°41'0 0.0
2018-Jun-24 00:58N 35°26' E 139°41'0 0.0
2018-Jun-24 00:25N 35°26' E 139°41'0 0.0
2018-Jun-23 23:58N 35°26' E 139°41'0 0.0
2018-Jun-23 23:28N 35°26' E 139°41'1 2.0
2018-Jun-23 23:00N 35°27' E 139°42'3 6.2
2018-Jun-23 22:30N 35°25' E 139°45'1 1.8
2018-Jun-23 21:59N 35°24' E 139°46'0 0.1
2018-Jun-23 21:26N 35°24' E 139°46'0 0.0
2018-Jun-23 20:23N 35°24' E 139°46'0 0.0
2018-Jun-23 19:47N 35°24' E 139°46'0 0.0
2018-Jun-23 14:20N 35°24' E 139°46'0 0.0
2018-Jun-23 13:56N 35°24' E 139°46'0 0.0
2018-Jun-23 13:29N 35°24' E 139°46'3 5.3
2018-Jun-23 13:00N 35°27' E 139°46'610.9
2018-Jun-23 12:24N 35°32' E 139°50'510.3
2018-Jun-23 11:58N 35°36' E 139°47'0 0.4
2018-Jun-23 11:28N 35°36' E 139°47'0 0.0
2018-Jun-23 10:58N 35°36' E 139°47'4 8.1
2018-Jun-23 10:29N 35°33' E 139°50'5 9.6
2018-Jun-23 10:01N 35°29' E 139°52'510.8
2018-Jun-23 09:31N 35°25' E 139°47'510.7
2018-Jun-23 09:00N 35°20' E 139°44'5 9.9
2018-Jun-23 08:30N 35°15' E 139°47'510.6
2018-Jun-23 08:01N 35°10' E 139°47'6 0.1
2018-Jun-21 05:52N 35°04' E 139°44'4 9.7
2018-Jun-21 05:29N 35°08' E 139°45'510.6
2018-Jun-21 04:59N 35°13' E 139°46'511.3
2018-Jun-21 04:30N 35°18' E 139°44'611.1
2018-Jun-21 04:00N 35°23' E 139°43'611.6
2018-Jun-21 03:30N 35°28' E 139°48'7 9.5
2018-Jun-21 02:43N 35°35' E 139°48'2 8.1
2018-Jun-21 02:30N 35°36' E 139°46'0 0.0
2018-Jun-21 01:54N 35°36' E 139°46'0 0.0
2018-Jun-21 01:24N 35°36' E 139°46'0 0.0
2018-Jun-20 23:26N 35°36' E 139°46'3 7.7
2018-Jun-20 23:00N 35°34' E 139°49'3 1.0
2018-Jun-20 20:06N 35°33' E 139°53'0 0.1
2018-Jun-20 20:00N 35°33' E 139°53'0 0.0
2018-Jun-20 19:30N 35°33' E 139°53'0 0.0
2018-Jun-20 19:00N 35°33' E 139°53'0 0.0
2018-Jun-20 18:09N 35°33' E 139°53'0 0.0
2018-Jun-20 17:33N 35°33' E 139°53'0 0.0
2018-Jun-20 17:18N 35°33' E 139°53'0 0.0
2018-Jun-20 16:42N 35°33' E 139°53'0 0.0
2018-Jun-20 16:09N 35°33' E 139°53'0 0.0
2018-Jun-20 12:21N 35°33' E 139°53'0 0.0
2018-Jun-20 12:00N 35°33' E 139°53'0 0.0
2018-Jun-20 11:27N 35°33' E 139°53'0 0.0
2018-Jun-20 09:03N 35°33' E 139°53'0 0.6
2018-Jun-20 08:58N 35°33' E 139°53'4 8.5
2018-Jun-20 08:30N 35°29' E 139°52'612.7
2018-Jun-20 08:00N 35°25' E 139°47'612.7
2018-Jun-20 07:30N 35°19' E 139°44'611.8
2018-Jun-20 07:00N 35°14' E 139°47'14 0.3
2018-Jun-18 04:28N 34°60' E 139°43'713.5
2018-Jun-18 03:55N 35°07' E 139°45'613.2
2018-Jun-18 03:29N 35°12' E 139°46'612.1
2018-Jun-18 03:00N 35°18' E 139°44'612.1
2018-Jun-18 02:30N 35°24' E 139°43'714.3
2018-Jun-18 02:00N 35°29' E 139°48'611.4
2018-Jun-18 01:28N 35°35' E 139°47'2 1.0
2018-Jun-17 23:59N 35°36' E 139°46'0 0.0
2018-Jun-17 23:20N 35°36' E 139°46'1 1.8
2018-Jun-17 22:53N 35°36' E 139°47'0 0.0
2018-Jun-17 02:40N 35°36' E 139°47'1 6.8
2018-Jun-17 02:30N 35°35' E 139°48'510.6
2018-Jun-17 02:00N 35°31' E 139°52'510.2
2018-Jun-17 01:30N 35°27' E 139°49'510.1
2018-Jun-17 01:01N 35°23' E 139°46'5 9.6
2018-Jun-17 00:30N 35°18' E 139°45'5 9.4
2018-Jun-17 00:01N 35°14' E 139°47'710.2
2018-Jun-16 23:18N 35°06' E 139°45'  
Track history (hours):
 
Tides and Currents Weather Stations Pressure Air Temp Water Temp Dewpoint Dewpoint Depression Visibility Wind Speed Wind Dir Waves Ship Positions

Ikuta

Last reported at 2018-Jun-25 05:53 UTC. Time now 2018-Jun-25 19:46 UTC.
Position N 34°52' E 139°48'.

Length 96 m; draft 3.6 m.

Type: Cargo ship. MMSI: 431501857.

Date/timePositionNaut miles runAvg speedWind from/ knotsBaromVisibWave heightAir tempDewpointWater temp
2018-Jun-25 05:53N 34°52' E 139°48'612.8
2018-Jun-25 05:25N 34°57' E 139°44'410.5
2018-Jun-25 05:00N 35°01' E 139°43'510.9
2018-Jun-25 04:30N 35°06' E 139°45'511.0
2018-Jun-25 04:00N 35°12' E 139°46'5 9.8
2018-Jun-25 03:30N 35°17' E 139°46'510.2
2018-Jun-25 03:00N 35°21' E 139°43'510.1
2018-Jun-25 02:29N 35°26' E 139°45'511.1
2018-Jun-25 02:00N 35°30' E 139°49'7 2.5
2018-Jun-24 23:16N 35°36' E 139°46'1 4.8
2018-Jun-24 23:00N 35°35' E 139°47'510.3
2018-Jun-24 22:30N 35°32' E 139°52'5 9.5
2018-Jun-24 22:00N 35°29' E 139°48'5 9.1
2018-Jun-24 21:30N 35°26' E 139°44'4 8.3
2018-Jun-24 21:00N 35°28' E 139°39'0 0.5
2018-Jun-24 20:28N 35°29' E 139°39'0 0.0
2018-Jun-24 19:58N 35°29' E 139°39'0 0.0
2018-Jun-24 19:28N 35°29' E 139°39'0 0.0
2018-Jun-24 18:58N 35°29' E 139°39'0 0.0
2018-Jun-24 18:28N 35°29' E 139°39'0 0.0
2018-Jun-24 17:58N 35°29' E 139°39'0 0.0
2018-Jun-24 17:28N 35°29' E 139°39'0 0.0
2018-Jun-24 16:58N 35°29' E 139°39'0 0.0
2018-Jun-24 16:28N 35°29' E 139°39'0 0.0
2018-Jun-24 15:58N 35°29' E 139°39'0 0.0
2018-Jun-24 15:28N 35°29' E 139°39'0 0.0
2018-Jun-24 14:58N 35°29' E 139°39'0 0.0
2018-Jun-24 14:28N 35°29' E 139°39'0 0.0
2018-Jun-24 13:58N 35°29' E 139°39'0 0.0
2018-Jun-24 13:28N 35°29' E 139°39'0 0.0
2018-Jun-24 12:58N 35°29' E 139°39'0 0.0
2018-Jun-24 12:28N 35°29' E 139°39'0 0.0
2018-Jun-24 11:58N 35°29' E 139°39'0 0.0
2018-Jun-24 11:28N 35°29' E 139°39'0 0.0
2018-Jun-24 10:58N 35°29' E 139°39'0 0.0
2018-Jun-24 10:28N 35°29' E 139°39'0 0.0
2018-Jun-24 09:58N 35°29' E 139°39'0 0.0
2018-Jun-24 09:28N 35°29' E 139°39'0 0.0
2018-Jun-24 08:58N 35°29' E 139°39'0 0.0
2018-Jun-24 08:28N 35°29' E 139°39'0 0.0
2018-Jun-24 07:58N 35°29' E 139°39'0 0.0
2018-Jun-24 07:28N 35°29' E 139°39'0 0.0
2018-Jun-24 06:58N 35°29' E 139°39'0 0.0
2018-Jun-24 06:28N 35°29' E 139°39'0 0.0
2018-Jun-24 05:58N 35°29' E 139°39'0 0.0
2018-Jun-24 05:28N 35°29' E 139°39'0 0.0
2018-Jun-24 04:58N 35°29' E 139°39'0 0.0
2018-Jun-24 04:28N 35°29' E 139°39'0 0.0
2018-Jun-24 03:55N 35°29' E 139°39'0 0.0
2018-Jun-24 03:28N 35°29' E 139°39'0 0.0
2018-Jun-24 02:55N 35°29' E 139°39'0 0.0
2018-Jun-24 02:28N 35°29' E 139°39'3 5.5
2018-Jun-24 01:58N 35°26' E 139°41'0 0.0
2018-Jun-24 01:28N 35°26' E 139°41'0 0.0
2018-Jun-24 00:58N 35°26' E 139°41'0 0.0
2018-Jun-24 00:25N 35°26' E 139°41'0 0.0
2018-Jun-23 23:58N 35°26' E 139°41'0 0.0
2018-Jun-23 23:28N 35°26' E 139°41'1 2.0
2018-Jun-23 23:00N 35°27' E 139°42'3 6.2
2018-Jun-23 22:30N 35°25' E 139°45'1 1.8
2018-Jun-23 21:59N 35°24' E 139°46'0 0.1
2018-Jun-23 21:26N 35°24' E 139°46'0 0.0
2018-Jun-23 20:23N 35°24' E 139°46'0 0.0
2018-Jun-23 19:47N 35°24' E 139°46'0 0.0
2018-Jun-23 14:20N 35°24' E 139°46'0 0.0
2018-Jun-23 13:56N 35°24' E 139°46'0 0.0
2018-Jun-23 13:29N 35°24' E 139°46'3 5.3
2018-Jun-23 13:00N 35°27' E 139°46'610.9
2018-Jun-23 12:24N 35°32' E 139°50'510.3
2018-Jun-23 11:58N 35°36' E 139°47'0 0.4
2018-Jun-23 11:28N 35°36' E 139°47'0 0.0
2018-Jun-23 10:58N 35°36' E 139°47'4 8.1
2018-Jun-23 10:29N 35°33' E 139°50'5 9.6
2018-Jun-23 10:01N 35°29' E 139°52'510.8
2018-Jun-23 09:31N 35°25' E 139°47'510.7
2018-Jun-23 09:00N 35°20' E 139°44'5 9.9
2018-Jun-23 08:30N 35°15' E 139°47'510.6
2018-Jun-23 08:01N 35°10' E 139°47'6 0.1
2018-Jun-21 05:52N 35°04' E 139°44'4 9.7
2018-Jun-21 05:29N 35°08' E 139°45'510.6
2018-Jun-21 04:59N 35°13' E 139°46'511.3
2018-Jun-21 04:30N 35°18' E 139°44'611.1
2018-Jun-21 04:00N 35°23' E 139°43'611.6
2018-Jun-21 03:30N 35°28' E 139°48'7 9.5
2018-Jun-21 02:43N 35°35' E 139°48'2 8.1
2018-Jun-21 02:30N 35°36' E 139°46'0 0.0
2018-Jun-21 01:54N 35°36' E 139°46'0 0.0
2018-Jun-21 01:24N 35°36' E 139°46'0 0.0
2018-Jun-20 23:26N 35°36' E 139°46'3 7.7
2018-Jun-20 23:00N 35°34' E 139°49'3 1.0
2018-Jun-20 20:06N 35°33' E 139°53'0 0.1
2018-Jun-20 20:00N 35°33' E 139°53'0 0.0
2018-Jun-20 19:30N 35°33' E 139°53'0 0.0
2018-Jun-20 19:00N 35°33' E 139°53'0 0.0
2018-Jun-20 18:09N 35°33' E 139°53'0 0.0
2018-Jun-20 17:33N 35°33' E 139°53'0 0.0
2018-Jun-20 17:18N 35°33' E 139°53'0 0.0
2018-Jun-20 16:42N 35°33' E 139°53'0 0.0
2018-Jun-20 16:09N 35°33' E 139°53'0 0.0
2018-Jun-20 12:21N 35°33' E 139°53'0 0.0
2018-Jun-20 12:00N 35°33' E 139°53'0 0.0
2018-Jun-20 11:27N 35°33' E 139°53'0 0.0
2018-Jun-20 09:03N 35°33' E 139°53'0 0.6
2018-Jun-20 08:58N 35°33' E 139°53'4 8.5
2018-Jun-20 08:30N 35°29' E 139°52'612.7
2018-Jun-20 08:00N 35°25' E 139°47'612.7
2018-Jun-20 07:30N 35°19' E 139°44'611.8
2018-Jun-20 07:00N 35°14' E 139°47'14 0.3
2018-Jun-18 04:28N 34°60' E 139°43'713.5
2018-Jun-18 03:55N 35°07' E 139°45'613.2
2018-Jun-18 03:29N 35°12' E 139°46'612.1
2018-Jun-18 03:00N 35°18' E 139°44'612.1
2018-Jun-18 02:30N 35°24' E 139°43'714.3
2018-Jun-18 02:00N 35°29' E 139°48'611.4
2018-Jun-18 01:28N 35°35' E 139°47'2 1.0
2018-Jun-17 23:59N 35°36' E 139°46'0 0.0
2018-Jun-17 23:20N 35°36' E 139°46'1 1.8
2018-Jun-17 22:53N 35°36' E 139°47'0 0.0
2018-Jun-17 02:40N 35°36' E 139°47'1 6.8
2018-Jun-17 02:30N 35°35' E 139°48'510.6
2018-Jun-17 02:00N 35°31' E 139°52'510.2
2018-Jun-17 01:30N 35°27' E 139°49'510.1
2018-Jun-17 01:01N 35°23' E 139°46'5 9.6
2018-Jun-17 00:30N 35°18' E 139°45'5 9.4
2018-Jun-17 00:01N 35°14' E 139°47'710.2
2018-Jun-16 23:18N 35°06' E 139°45'  

Dump ship's entire track history